createdAt,value
2019-05-06T00:02:26.398Z,59.42
2019-05-06T00:04:58.678Z,59.25
2019-05-06T00:07:31.038Z,59.28
2019-05-06T00:10:05.952Z,59.20
2019-05-06T00:12:38.208Z,59.30
2019-05-06T00:15:09.457Z,59.08
2019-05-06T00:17:44.447Z,57.91
2019-05-06T00:20:15.988Z,58.95
2019-05-06T00:22:49.019Z,59.14
2019-05-06T00:25:28.698Z,58.73
2019-05-06T00:28:37.932Z,58.56
2019-05-06T00:31:16.510Z,58.56
2019-05-06T00:33:48.268Z,58.72
2019-05-06T00:36:21.118Z,58.56
2019-05-06T00:38:56.373Z,58.46
2019-05-06T00:41:36.341Z,58.57
2019-05-06T00:44:07.032Z,58.51
2019-05-06T00:46:38.276Z,58.43
2019-05-06T00:49:10.158Z,57.70
2019-05-06T00:51:41.397Z,58.35
2019-05-06T00:54:18.078Z,58.52
2019-05-06T00:56:50.227Z,58.65
2019-05-06T00:59:21.366Z,58.75
2019-05-06T01:01:54.052Z,58.45
2019-05-06T01:04:28.131Z,58.97
2019-05-06T01:07:00.489Z,58.70
2019-05-06T01:09:34.591Z,58.85
2019-05-06T01:12:08.308Z,58.83
2019-05-06T01:14:44.868Z,58.65
2019-05-06T01:17:17.518Z,58.71
2019-05-06T01:19:50.549Z,58.86
2019-05-06T01:22:24.653Z,58.88
2019-05-06T01:24:56.908Z,59.05
2019-05-06T01:27:29.038Z,58.92
2019-05-06T01:30:01.491Z,58.96
2019-05-06T01:32:34.573Z,58.95
2019-05-06T01:35:08.089Z,59.07
2019-05-06T01:37:44.012Z,59.22
2019-05-06T01:40:38.169Z,59.61
2019-05-06T01:43:18.889Z,59.78
2019-05-06T01:45:53.515Z,60.10
2019-05-06T01:48:44.301Z,60.18
2019-05-06T01:51:18.577Z,60.40
2019-05-06T01:53:54.422Z,60.33
2019-05-06T01:56:26.688Z,60.31
2019-05-06T01:58:59.338Z,60.54
2019-05-06T02:01:33.898Z,60.49
2019-05-06T02:04:05.451Z,60.68
2019-05-06T02:06:37.838Z,60.69
2019-05-06T02:09:16.779Z,60.66
2019-05-06T02:11:48.880Z,60.51
2019-05-06T02:14:21.059Z,60.46
2019-05-06T02:16:54.598Z,60.43
2019-05-06T02:19:26.810Z,60.75
2019-05-06T02:22:16.956Z,60.61
2019-05-06T02:24:58.898Z,60.72
2019-05-06T02:27:31.118Z,60.70
2019-05-06T02:30:19.378Z,60.89
2019-05-06T02:33:10.511Z,62.30
2019-05-06T02:36:06.627Z,60.88
2019-05-06T02:38:47.051Z,60.54
2019-05-06T02:41:13.405Z,60.40
2019-05-06T02:43:46.081Z,60.28
2019-05-06T02:46:18.539Z,60.14
2019-05-06T02:49:13.262Z,59.95
2019-05-06T02:51:45.279Z,60.83
2019-05-06T02:54:16.488Z,60.14
2019-05-06T02:56:48.759Z,60.28
2019-05-06T02:59:24.096Z,59.84
2019-05-06T03:01:56.232Z,59.67
2019-05-06T03:04:28.459Z,59.74
2019-05-06T03:06:59.657Z,59.57
2019-05-06T03:09:33.982Z,59.57
2019-05-06T03:12:05.722Z,59.59
2019-05-06T03:14:39.721Z,59.98
2019-05-06T03:17:14.064Z,59.99
2019-05-06T03:19:47.593Z,59.91
2019-05-06T03:22:44.860Z,59.20
2019-05-06T03:25:24.210Z,59.14
2019-05-06T03:27:56.625Z,59.10
2019-05-06T03:30:29.280Z,59.08
2019-05-06T03:33:30.952Z,58.88
2019-05-06T03:35:49.899Z,58.71
2019-05-06T03:38:09.532Z,58.72
2019-05-06T03:40:45.644Z,58.53
2019-05-06T03:43:18.880Z,59.01
2019-05-06T03:46:10.026Z,59.24
2019-05-06T03:48:44.647Z,59.40
2019-05-06T03:51:17.036Z,59.76
2019-05-06T03:53:49.838Z,59.55
2019-05-06T03:56:24.020Z,59.63
2019-05-06T03:58:58.492Z,59.59
2019-05-06T04:01:33.558Z,59.36
2019-05-06T04:04:05.278Z,59.64
2019-05-06T04:06:37.689Z,59.36
2019-05-06T04:09:13.042Z,58.90
2019-05-06T04:11:44.640Z,58.71
2019-05-06T04:14:18.640Z,58.58
2019-05-06T04:16:59.682Z,58.22
2019-05-06T04:19:39.781Z,58.28
2019-05-06T04:22:33.683Z,58.41
2019-05-06T04:25:23.401Z,58.19
2019-05-06T04:27:58.041Z,57.99
2019-05-06T04:30:33.202Z,58.33
2019-05-06T04:33:05.420Z,58.12
2019-05-06T04:35:37.991Z,58.01
2019-05-06T04:38:13.639Z,57.31
2019-05-06T04:40:44.833Z,57.42
2019-05-06T04:43:17.210Z,56.82
2019-05-06T04:45:49.758Z,56.97
2019-05-06T04:50:54.563Z,56.83
2019-05-06T04:53:27.338Z,56.69
2019-05-06T04:55:59.718Z,56.19
2019-05-06T04:58:33.517Z,56.19
2019-05-06T05:01:06.085Z,56.07
2019-05-06T05:03:38.787Z,56.11
2019-05-06T05:06:13.579Z,55.49
2019-05-06T05:08:47.229Z,55.15
2019-05-06T05:11:38.009Z,55.20
2019-05-06T05:14:32.807Z,55.30
2019-05-06T05:17:12.833Z,55.01
2019-05-06T05:19:45.029Z,54.71
2019-05-06T05:22:16.097Z,54.50
2019-05-06T05:24:48.139Z,51.76
2019-05-06T05:27:19.236Z,54.34
2019-05-06T05:29:52.182Z,51.37
2019-05-06T05:32:26.812Z,53.71
2019-05-06T05:34:58.389Z,53.17
2019-05-06T05:37:29.418Z,52.93
2019-05-06T05:40:03.084Z,51.93
2019-05-06T05:43:02.922Z,52.27
2019-05-06T05:45:34.818Z,52.71
2019-05-06T05:48:12.418Z,51.70
2019-05-06T05:50:44.350Z,48.78
2019-05-06T05:53:16.666Z,50.70
2019-05-06T05:55:47.677Z,50.71
2019-05-06T05:58:20.158Z,47.49
2019-05-06T06:00:52.478Z,49.09
2019-05-06T06:03:24.908Z,50.00
2019-05-06T06:05:57.169Z,49.40
2019-05-06T06:08:28.407Z,49.10
2019-05-06T06:11:05.568Z,45.47
2019-05-06T06:13:38.148Z,46.84
2019-05-06T06:16:38.058Z,47.72
2019-05-06T06:19:27.538Z,47.95
2019-05-06T06:22:03.106Z,48.10
2019-05-06T06:24:36.599Z,46.34
2019-05-06T06:27:08.782Z,48.14
2019-05-06T06:29:41.807Z,47.76
2019-05-06T06:32:19.391Z,46.22
2019-05-06T06:35:07.555Z,45.34
2019-05-06T06:37:47.778Z,48.02
2019-05-06T06:40:22.318Z,47.44
2019-05-06T06:42:59.099Z,48.24
2019-05-06T06:45:32.627Z,46.63
2019-05-06T06:48:04.943Z,48.38
2019-05-06T06:50:37.398Z,48.14
2019-05-06T06:53:09.779Z,47.51
2019-05-06T06:55:42.673Z,47.46
2019-05-06T06:58:34.930Z,44.73
2019-05-06T07:01:19.107Z,46.00
2019-05-06T07:04:10.249Z,46.68
2019-05-06T07:06:42.390Z,45.58
2019-05-06T07:09:14.449Z,46.24
2019-05-06T07:11:47.859Z,46.36
2019-05-06T07:14:22.485Z,46.46
2019-05-06T07:16:54.278Z,46.63
2019-05-06T07:19:32.756Z,45.78
2019-05-06T07:22:06.878Z,42.02
2019-05-06T07:24:38.949Z,44.38
2019-05-06T07:27:22.817Z,44.21
2019-05-06T07:29:56.468Z,43.27
2019-05-06T07:32:28.699Z,42.50
2019-05-06T07:35:02.281Z,42.95
2019-05-06T07:37:35.876Z,42.26
2019-05-06T07:40:09.509Z,43.15
2019-05-06T07:42:46.758Z,43.03
2019-05-06T07:45:38.179Z,43.09
2019-05-06T07:48:12.896Z,42.69
2019-05-06T07:50:45.343Z,42.15
2019-05-06T07:53:16.557Z,40.91
2019-05-06T07:55:48.588Z,37.88
2019-05-06T07:58:22.618Z,41.64
2019-05-06T08:00:54.338Z,41.86
2019-05-06T08:03:26.448Z,41.89
2019-05-06T08:05:58.840Z,41.27
2019-05-06T08:08:33.443Z,37.95
2019-05-06T08:11:05.199Z,41.08
2019-05-06T08:13:36.417Z,41.48
2019-05-06T08:16:09.078Z,38.26
2019-05-06T08:18:42.513Z,37.99
2019-05-06T08:21:22.338Z,37.40
2019-05-06T08:23:54.578Z,37.85
2019-05-06T08:26:26.757Z,37.05
2019-05-06T08:28:57.967Z,37.14
2019-05-06T08:31:29.943Z,33.42
2019-05-06T08:34:02.647Z,36.89
2019-05-06T08:37:12.216Z,36.82
2019-05-06T08:39:46.124Z,35.83
2019-05-06T08:42:18.818Z,35.90
2019-05-06T08:44:49.858Z,36.04
2019-05-06T08:47:22.332Z,32.29
2019-05-06T08:50:16.820Z,38.17
2019-05-06T08:53:16.601Z,36.10
2019-05-06T08:55:49.060Z,38.11
2019-05-06T08:58:24.948Z,36.72
2019-05-06T09:01:05.558Z,37.44
2019-05-06T09:03:37.710Z,36.08
2019-05-06T09:06:26.055Z,34.29
2019-05-06T09:08:45.309Z,34.46
2019-05-06T09:11:17.468Z,37.11
2019-05-06T09:13:52.155Z,35.34
2019-05-06T09:16:24.099Z,33.07
2019-05-06T09:18:55.327Z,37.01
2019-05-06T09:21:27.338Z,35.45
2019-05-06T09:24:02.105Z,32.86
2019-05-06T09:26:52.031Z,35.06
2019-05-06T09:30:02.905Z,35.12
2019-05-06T09:32:42.887Z,34.91
2019-05-06T09:35:15.628Z,34.89
2019-05-06T09:37:47.891Z,35.50
2019-05-06T09:40:22.628Z,33.80
2019-05-06T09:42:54.128Z,34.52
2019-05-06T09:45:25.497Z,31.96
2019-05-06T09:48:14.101Z,31.50
2019-05-06T09:50:47.752Z,33.94
2019-05-06T09:53:25.412Z,33.76
2019-05-06T09:56:23.098Z,31.89
2019-05-06T09:58:55.448Z,33.67
2019-05-06T10:01:26.823Z,32.79
2019-05-06T10:04:03.292Z,27.74
2019-05-06T10:06:34.849Z,33.25
2019-05-06T10:09:09.039Z,32.48
2019-05-06T10:11:42.342Z,28.46
2019-05-06T10:14:14.878Z,31.44
2019-05-06T10:16:47.348Z,32.89
2019-05-06T10:19:22.389Z,32.55
2019-05-06T10:21:54.069Z,31.56
2019-05-06T10:24:25.145Z,29.05
2019-05-06T10:26:59.058Z,26.65
2019-05-06T10:29:45.118Z,29.81
2019-05-06T10:32:29.318Z,32.80
2019-05-06T10:35:02.786Z,29.39
2019-05-06T10:38:00.000Z,32.44
2019-05-06T10:40:44.114Z,33.18
2019-05-06T10:43:22.057Z,30.94
2019-05-06T10:45:54.160Z,32.62
2019-05-06T10:48:27.179Z,32.62
2019-05-06T10:51:05.909Z,29.63
2019-05-06T10:53:38.149Z,32.40
2019-05-06T10:56:28.153Z,29.93
2019-05-06T10:59:02.502Z,26.45
2019-05-06T11:01:38.058Z,27.28
2019-05-06T11:04:10.118Z,31.68
2019-05-06T11:06:43.036Z,30.25
2019-05-06T11:09:15.659Z,26.94
2019-05-06T11:11:47.642Z,29.96
2019-05-06T11:17:05.248Z,30.42
2019-05-06T11:19:37.597Z,27.37
2019-05-06T11:22:08.620Z,30.36
2019-05-06T11:24:42.151Z,26.99
2019-05-06T11:27:27.473Z,32.24
2019-05-06T11:29:49.939Z,32.01
2019-05-06T11:32:50.237Z,28.13
2019-05-06T11:35:32.487Z,29.16
2019-05-06T11:38:12.034Z,31.76
2019-05-06T11:40:44.138Z,30.38
2019-05-06T11:43:16.469Z,31.54
2019-05-06T11:45:48.719Z,29.13
2019-05-06T11:48:22.289Z,28.84
2019-05-06T11:50:57.968Z,30.91
2019-05-06T11:53:30.038Z,30.63
2019-05-06T11:56:02.163Z,28.94
2019-05-06T11:58:44.838Z,26.79
2019-05-06T12:01:28.948Z,30.91
2019-05-06T12:04:02.681Z,31.18
2019-05-06T12:06:38.139Z,27.44
2019-05-06T12:09:16.340Z,31.00
2019-05-06T12:11:44.818Z,28.52
2019-05-06T12:14:15.954Z,30.53
2019-05-06T12:16:47.921Z,27.05
2019-05-06T12:19:19.177Z,30.18
2019-05-06T12:21:51.151Z,25.77
2019-05-06T12:24:22.884Z,31.07
2019-05-06T12:26:54.877Z,27.76
2019-05-06T12:29:26.979Z,26.14
2019-05-06T12:32:22.575Z,31.15
2019-05-06T12:34:56.279Z,28.79
2019-05-06T12:37:27.819Z,30.28
2019-05-06T12:40:00.458Z,27.45
2019-05-06T12:42:35.459Z,26.94
2019-05-06T12:45:26.861Z,25.99
2019-05-06T12:48:07.967Z,28.79
2019-05-06T12:50:43.088Z,28.17
2019-05-06T12:53:14.960Z,29.68
2019-05-06T12:55:47.869Z,29.20
2019-05-06T12:58:23.273Z,29.45
2019-05-06T13:00:56.530Z,29.40
2019-05-06T13:03:31.690Z,29.68
2019-05-06T13:06:07.261Z,27.58
2019-05-06T13:08:54.035Z,30.54
2019-05-06T13:11:13.228Z,30.16
2019-05-06T13:13:56.721Z,29.80
2019-05-06T13:16:19.759Z,27.87
2019-05-06T13:18:54.693Z,26.61
2019-05-06T13:21:25.449Z,29.66
2019-05-06T13:24:04.375Z,29.48
2019-05-06T13:26:35.957Z,29.48
2019-05-06T13:29:26.858Z,29.80
2019-05-06T13:32:01.986Z,29.28
2019-05-06T13:34:39.904Z,29.28
2019-05-06T13:37:13.803Z,28.97
2019-05-06T13:39:46.189Z,30.11
2019-05-06T13:42:22.488Z,29.42
2019-05-06T13:44:53.968Z,28.21
2019-05-06T13:47:44.037Z,29.81
2019-05-06T13:50:18.129Z,25.34
2019-05-06T13:53:07.799Z,30.35
2019-05-06T13:55:24.658Z,30.17
2019-05-06T13:57:56.799Z,30.11
2019-05-06T14:00:29.419Z,30.38
2019-05-06T14:03:02.204Z,30.38
2019-05-06T14:05:34.281Z,30.65
2019-05-06T14:08:06.312Z,30.91
2019-05-06T14:10:37.677Z,30.81
2019-05-06T14:13:12.764Z,28.93
2019-05-06T14:15:44.259Z,31.42
2019-05-06T14:18:15.598Z,31.48
2019-05-06T14:20:48.579Z,29.45
2019-05-06T14:23:22.114Z,31.97
2019-05-06T14:26:16.307Z,31.82
2019-05-06T14:28:58.981Z,31.61
2019-05-06T14:31:44.438Z,29.69
2019-05-06T14:34:16.962Z,32.00
2019-05-06T14:36:50.220Z,32.04
2019-05-06T14:39:44.740Z,30.83
2019-05-06T14:42:04.053Z,30.35
2019-05-06T14:44:36.709Z,32.65
2019-05-06T14:47:23.719Z,32.61
2019-05-06T14:49:58.530Z,32.39
2019-05-06T14:52:33.382Z,32.62
2019-05-06T14:55:22.164Z,31.72
2019-05-06T14:57:53.609Z,32.21
2019-05-06T15:00:29.419Z,32.22
2019-05-06T15:03:02.924Z,32.61
2019-05-06T15:05:36.297Z,31.97
2019-05-06T15:08:12.585Z,32.82
2019-05-06T15:10:49.433Z,31.12
2019-05-06T15:13:22.837Z,31.29
2019-05-06T15:15:56.318Z,32.65
2019-05-06T15:18:28.482Z,32.96
2019-05-06T15:21:28.701Z,31.43
2019-05-06T15:23:37.700Z,33.30
2019-05-06T15:26:12.213Z,32.49
2019-05-06T15:28:45.799Z,33.10
2019-05-06T15:31:30.858Z,33.55
2019-05-06T15:34:05.039Z,32.74
2019-05-06T15:36:44.568Z,33.71
2019-05-06T15:39:19.117Z,33.42
2019-05-06T15:41:57.258Z,33.56
2019-05-06T15:44:33.037Z,33.70
2019-05-06T15:47:06.589Z,33.40
2019-05-06T15:49:38.542Z,33.61
2019-05-06T15:52:12.587Z,33.80
2019-05-06T15:54:44.819Z,33.11
2019-05-06T15:57:16.287Z,33.88
2019-05-06T15:59:48.149Z,32.06
2019-05-06T16:02:23.538Z,32.61
2019-05-06T16:04:55.978Z,32.28
2019-05-06T16:07:28.168Z,34.01
2019-05-06T16:09:59.457Z,33.73
2019-05-06T16:12:31.450Z,31.87
2019-05-06T16:15:02.756Z,34.17
2019-05-06T16:17:35.227Z,32.21
2019-05-06T16:20:07.679Z,32.86
2019-05-06T16:22:44.245Z,34.60
2019-05-06T16:25:15.519Z,34.01
2019-05-06T16:27:54.496Z,34.32
2019-05-06T16:30:27.895Z,34.31
2019-05-06T16:33:00.639Z,34.33
2019-05-06T16:35:33.178Z,33.91
2019-05-06T16:38:06.479Z,34.15
2019-05-06T16:40:37.466Z,34.11
2019-05-06T16:43:09.408Z,32.03
2019-05-06T16:45:42.751Z,34.27
2019-05-06T16:48:15.398Z,34.30
2019-05-06T16:50:47.769Z,34.30
2019-05-06T16:53:19.951Z,34.08
2019-05-06T16:55:59.427Z,33.91
2019-05-06T16:58:34.231Z,31.14
2019-05-06T17:01:08.258Z,34.60
2019-05-06T17:04:14.276Z,34.59
2019-05-06T17:06:45.878Z,34.61
2019-05-06T17:09:32.516Z,33.93
2019-05-06T17:12:04.684Z,34.84
2019-05-06T17:14:36.859Z,35.00
2019-05-06T17:17:08.921Z,34.73
2019-05-06T17:19:42.198Z,35.32
2019-05-06T17:22:14.496Z,35.41
2019-05-06T17:24:48.551Z,35.80
2019-05-06T17:27:23.580Z,35.71
2019-05-06T17:30:09.740Z,36.29
2019-05-06T17:32:45.568Z,36.32
2019-05-06T17:35:18.081Z,36.38
2019-05-06T17:38:06.441Z,36.86
2019-05-06T17:40:38.787Z,36.43
2019-05-06T17:43:09.937Z,37.16
2019-05-06T17:45:59.410Z,37.11
2019-05-06T17:48:52.859Z,37.43
2019-05-06T17:51:37.445Z,37.75
2019-05-06T17:54:26.293Z,37.70
2019-05-06T17:57:48.588Z,37.71
2019-05-06T18:00:52.997Z,37.88
2019-05-06T18:03:25.712Z,37.79
2019-05-06T18:06:22.969Z,37.37
2019-05-06T18:09:15.938Z,37.36
2019-05-06T18:11:59.605Z,37.63
2019-05-06T18:14:40.684Z,37.67
2019-05-06T18:17:17.242Z,37.60
2019-05-06T18:19:54.148Z,37.67
2019-05-06T18:22:28.292Z,37.78
2019-05-06T18:25:05.501Z,37.92
2019-05-06T18:27:43.148Z,38.05
2019-05-06T18:30:28.286Z,38.05
2019-05-06T18:32:57.438Z,38.13
2019-05-06T18:35:30.197Z,37.97
2019-05-06T18:38:02.973Z,37.89
2019-05-06T18:40:36.218Z,38.09
2019-05-06T18:43:08.748Z,38.14
2019-05-06T18:45:41.946Z,37.81
2019-05-06T18:48:13.998Z,37.94
2019-05-06T18:50:46.106Z,38.00
2019-05-06T18:53:19.158Z,37.99
2019-05-06T18:55:54.789Z,37.95
2019-05-06T18:58:29.092Z,38.10
2019-05-06T19:01:03.786Z,38.06
2019-05-06T19:04:03.438Z,37.82
2019-05-06T19:06:35.839Z,37.88
2019-05-06T19:09:22.998Z,37.96
2019-05-06T19:11:55.179Z,37.85
2019-05-06T19:14:27.388Z,37.77
2019-05-06T19:16:58.217Z,37.83
2019-05-06T19:19:34.164Z,36.93
2019-05-06T19:22:03.938Z,37.90
2019-05-06T19:24:36.318Z,37.91
2019-05-06T19:27:08.492Z,38.10
2019-05-06T19:29:39.705Z,37.09
2019-05-06T19:32:12.358Z,36.97
2019-05-06T19:34:44.299Z,38.09
2019-05-06T19:37:16.308Z,37.82
2019-05-06T19:39:48.338Z,38.32
2019-05-06T19:42:22.392Z,38.36
2019-05-06T19:44:54.259Z,38.41
2019-05-06T19:47:31.884Z,38.43
2019-05-06T19:50:07.187Z,38.44
2019-05-06T19:52:39.236Z,38.40
2019-05-06T19:55:12.373Z,38.45
2019-05-06T19:57:44.679Z,38.69
2019-05-06T20:00:22.812Z,38.62
2019-05-06T20:02:58.638Z,38.79
2019-05-06T20:05:39.473Z,38.74
2019-05-06T20:08:17.869Z,38.73
2019-05-06T20:11:13.132Z,38.61
2019-05-06T20:13:45.528Z,37.82
2019-05-06T20:16:16.577Z,38.75
2019-05-06T20:18:48.478Z,37.72
2019-05-06T20:21:22.906Z,38.75
2019-05-06T20:23:54.392Z,38.03
2019-05-06T20:26:26.450Z,38.60
2019-05-06T20:28:58.445Z,38.42
2019-05-06T20:31:32.128Z,38.62
2019-05-06T20:34:04.348Z,38.58
2019-05-06T20:36:37.088Z,38.06
2019-05-06T20:39:11.837Z,38.44
2019-05-06T20:41:43.298Z,38.59
2019-05-06T20:44:15.269Z,38.75
2019-05-06T20:46:47.503Z,38.86
2019-05-06T20:49:18.539Z,38.64
2019-05-06T20:51:52.130Z,38.38
2019-05-06T20:54:24.119Z,38.58
2019-05-06T20:56:56.480Z,38.88
2019-05-06T20:59:28.428Z,38.88
2019-05-06T21:02:00.580Z,38.96
2019-05-06T21:04:32.456Z,39.12
2019-05-06T21:07:04.517Z,39.47
2019-05-06T21:09:35.716Z,39.37
2019-05-06T21:12:07.738Z,39.35
2019-05-06T21:14:42.096Z,39.48
2019-05-06T21:17:14.368Z,39.61
2019-05-06T21:19:46.408Z,39.63
2019-05-06T21:22:17.562Z,39.84
2019-05-06T21:24:49.558Z,40.42
2019-05-06T21:27:22.923Z,39.95
2019-05-06T21:29:53.187Z,40.29
2019-05-06T21:32:25.268Z,40.42
2019-05-06T21:34:56.288Z,40.29
2019-05-06T21:37:28.238Z,40.98
2019-05-06T21:40:00.104Z,40.58
2019-05-06T21:42:32.610Z,40.63
2019-05-06T21:45:05.614Z,40.67
2019-05-06T21:47:37.629Z,40.78
2019-05-06T21:50:12.057Z,40.86
2019-05-06T21:52:43.912Z,40.96
2019-05-06T21:55:16.038Z,41.21
2019-05-06T21:57:46.997Z,41.12
2019-05-06T22:00:23.387Z,41.68
2019-05-06T22:02:57.039Z,41.26
2019-05-06T22:05:29.119Z,41.50
2019-05-06T22:08:01.881Z,41.43
2019-05-06T22:10:34.538Z,41.40
2019-05-06T22:13:06.528Z,41.48
2019-05-06T22:15:42.072Z,41.52
2019-05-06T22:18:14.135Z,41.52
2019-05-06T22:21:04.068Z,41.66
2019-05-06T22:23:53.089Z,41.77
2019-05-06T22:26:25.538Z,41.73
2019-05-06T22:28:57.912Z,41.86
2019-05-06T22:31:29.738Z,41.98
2019-05-06T22:34:01.646Z,42.01
2019-05-06T22:36:33.940Z,42.15
2019-05-06T22:39:06.281Z,42.45
2019-05-06T22:41:39.919Z,43.85
2019-05-06T22:44:13.980Z,42.52
2019-05-06T22:46:45.822Z,42.54
2019-05-06T22:49:17.878Z,42.83
2019-05-06T22:51:52.125Z,42.91
2019-05-06T22:54:24.635Z,43.08
2019-05-06T22:56:56.968Z,43.55
2019-05-06T22:59:29.758Z,43.40
2019-05-06T23:02:22.583Z,43.59
2019-05-06T23:04:57.588Z,44.77
2019-05-06T23:07:29.907Z,43.64
2019-05-06T23:10:02.086Z,43.88
2019-05-06T23:12:33.116Z,43.62
2019-05-06T23:15:06.708Z,45.25
2019-05-06T23:17:39.068Z,43.84
2019-05-06T23:20:10.006Z,44.29
2019-05-06T23:22:42.372Z,45.87
2019-05-06T23:25:14.822Z,44.58
2019-05-06T23:27:45.817Z,46.30
2019-05-06T23:30:16.849Z,47.29
2019-05-06T23:32:48.816Z,47.37
2019-05-06T23:35:21.901Z,48.14
2019-05-06T23:38:09.816Z,47.94
2019-05-06T23:40:58.176Z,48.01
2019-05-06T23:43:46.878Z,48.78
2019-05-06T23:46:35.536Z,48.59
2019-05-06T23:49:24.158Z,49.37
2019-05-06T23:52:12.889Z,49.31
2019-05-06T23:55:03.241Z,49.06
2019-05-06T23:57:33.356Z,49.48
